Terminal Aerodrome Forecast
Issued by NWS Charleston, WV

Current Version | Previous Version | Graphics & Text | Print | Product List | Glossary On
Versions: 1 2 3 4 5 6 7 8 9 10 11 12 13 14 15 16 17 18 19 20 21 22 23
137
FTUS41 KRLX 271143
TAFEKN
TAF
KEKN 271143Z 2712/2812 29003KT 6SM -RA BR OVC017
     FM271500 VRB03KT P6SM BKN025
     FM271600 29004KT P6SM BKN040
     FM271800 00000KT 5SM SHRA BKN030
     FM280100 VRB04KT P6SM BKN080
     FM280900 VRB03KT 5SM -SHRA OVC050=

USA.gov is the U.S. government's official web portal to all federal, state and local government web resources and services.